sensor_id;sensor_type;location;lat;lon;timestamp;pressure;altitude;pressure_sealevel;temperature;humidity
20628;BME280;10473;42.734;24.258;2022-08-07T00:02:14;91774.97;;;22.65;57.89
20628;BME280;10473;42.734;24.258;2022-08-07T00:04:43;91770.19;;;22.69;57.40
20628;BME280;10473;42.734;24.258;2022-08-07T00:07:11;91771.88;;;22.75;57.35
20628;BME280;10473;42.734;24.258;2022-08-07T00:09:39;91766.16;;;22.73;57.24
20628;BME280;10473;42.734;24.258;2022-08-07T00:12:07;91769.28;;;22.72;57.55
20628;BME280;10473;42.734;24.258;2022-08-07T00:14:36;91774.78;;;22.38;58.08
20628;BME280;10473;42.734;24.258;2022-08-07T00:17:04;91770.53;;;22.49;58.03
20628;BME280;10473;42.734;24.258;2022-08-07T00:19:33;91771.72;;;22.27;58.53
20628;BME280;10473;42.734;24.258;2022-08-07T00:22:03;91776.31;;;22.39;58.51
20628;BME280;10473;42.734;24.258;2022-08-07T00:24:30;91770.97;;;22.05;59.32
20628;BME280;10473;42.734;24.258;2022-08-07T00:26:58;91780.75;;;21.90;59.76
20628;BME280;10473;42.734;24.258;2022-08-07T00:29:26;91775.94;;;22.06;59.68
20628;BME280;10473;42.734;24.258;2022-08-07T00:31:55;91777.31;;;22.11;59.66
20628;BME280;10473;42.734;24.258;2022-08-07T00:34:24;91777.94;;;22.15;59.55
20628;BME280;10473;42.734;24.258;2022-08-07T00:36:52;91772.28;;;22.22;59.49
20628;BME280;10473;42.734;24.258;2022-08-07T00:39:21;91770.34;;;22.22;59.57
20628;BME280;10473;42.734;24.258;2022-08-07T00:41:50;91770.47;;;22.19;59.31
20628;BME280;10473;42.734;24.258;2022-08-07T00:44:19;91772.53;;;22.15;59.48
20628;BME280;10473;42.734;24.258;2022-08-07T00:46:46;91779.94;;;22.23;59.66
20628;BME280;10473;42.734;24.258;2022-08-07T00:49:14;91767.50;;;22.26;59.71
20628;BME280;10473;42.734;24.258;2022-08-07T00:51:42;91772.03;;;22.29;59.59
20628;BME280;10473;42.734;24.258;2022-08-07T00:54:11;91778.66;;;22.37;59.35
20628;BME280;10473;42.734;24.258;2022-08-07T00:56:42;91778.66;;;22.37;59.70
20628;BME280;10473;42.734;24.258;2022-08-07T00:59:10;91781.06;;;22.35;59.58
20628;BME280;10473;42.734;24.258;2022-08-07T01:01:37;91777.81;;;22.40;59.42
20628;BME280;10473;42.734;24.258;2022-08-07T01:04:06;91772.41;;;22.40;59.19
20628;BME280;10473;42.734;24.258;2022-08-07T01:06:35;91776.81;;;22.25;60.22
20628;BME280;10473;42.734;24.258;2022-08-07T01:09:03;91776.75;;;22.37;59.90
20628;BME280;10473;42.734;24.258;2022-08-07T01:11:31;91775.91;;;22.28;60.16
20628;BME280;10473;42.734;24.258;2022-08-07T01:14:01;91770.28;;;22.35;59.80
20628;BME280;10473;42.734;24.258;2022-08-07T01:16:28;91779.44;;;22.37;59.63
20628;BME280;10473;42.734;24.258;2022-08-07T01:18:57;91789.59;;;22.12;61.02
20628;BME280;10473;42.734;24.258;2022-08-07T01:21:27;91778.81;;;22.12;60.86
20628;BME280;10473;42.734;24.258;2022-08-07T01:23:56;91780.81;;;22.20;60.66
20628;BME280;10473;42.734;24.258;2022-08-07T01:26:27;91767.22;;;22.24;60.59
20628;BME280;10473;42.734;24.258;2022-08-07T01:28:55;91774.81;;;22.16;60.59
20628;BME280;10473;42.734;24.258;2022-08-07T01:31:27;91776.19;;;22.21;60.64
20628;BME280;10473;42.734;24.258;2022-08-07T01:33:59;91773.03;;;22.22;60.50
20628;BME280;10473;42.734;24.258;2022-08-07T01:36:35;91770.00;;;22.20;60.38
20628;BME280;10473;42.734;24.258;2022-08-07T01:39:09;91755.72;;;22.11;60.37
20628;BME280;10473;42.734;24.258;2022-08-07T01:41:41;91758.84;;;21.88;61.04
20628;BME280;10473;42.734;24.258;2022-08-07T01:44:10;91765.25;;;21.81;62.01
20628;BME280;10473;42.734;24.258;2022-08-07T01:46:39;91768.59;;;21.73;62.07
20628;BME280;10473;42.734;24.258;2022-08-07T01:49:09;91778.41;;;21.79;61.64
20628;BME280;10473;42.734;24.258;2022-08-07T01:51:40;91769.97;;;21.90;60.68
20628;BME280;10473;42.734;24.258;2022-08-07T01:54:12;91778.97;;;21.62;62.36
20628;BME280;10473;42.734;24.258;2022-08-07T01:56:49;91774.22;;;21.66;62.06
20628;BME280;10473;42.734;24.258;2022-08-07T01:59:24;91774.00;;;21.73;62.30
20628;BME280;10473;42.734;24.258;2022-08-07T02:01:56;91773.13;;;21.76;61.93
20628;BME280;10473;42.734;24.258;2022-08-07T02:04:27;91779.91;;;21.68;62.10
20628;BME280;10473;42.734;24.258;2022-08-07T02:07:03;91789.16;;;21.33;62.64
20628;BME280;10473;42.734;24.258;2022-08-07T02:09:31;91783.13;;;21.29;63.23
20628;BME280;10473;42.734;24.258;2022-08-07T02:12:02;91776.25;;;21.28;63.15
20628;BME280;10473;42.734;24.258;2022-08-07T02:14:50;91763.69;;;21.46;62.44
20628;BME280;10473;42.734;24.258;2022-08-07T02:17:27;91780.25;;;21.11;63.31
20628;BME280;10473;42.734;24.258;2022-08-07T02:19:58;91776.25;;;21.28;63.14
20628;BME280;10473;42.734;24.258;2022-08-07T02:22:29;91780.81;;;21.06;63.78
20628;BME280;10473;42.734;24.258;2022-08-07T02:24:58;91772.34;;;21.29;63.27
20628;BME280;10473;42.734;24.258;2022-08-07T02:27:27;91777.53;;;21.36;63.11
20628;BME280;10473;42.734;24.258;2022-08-07T02:29:57;91782.69;;;21.43;62.24
20628;BME280;10473;42.734;24.258;2022-08-07T02:32:32;91769.69;;;21.16;63.01
20628;BME280;10473;42.734;24.258;2022-08-07T02:35:04;91763.72;;;21.34;62.46
20628;BME280;10473;42.734;24.258;2022-08-07T02:37:38;91766.75;;;21.36;62.74
20628;BME280;10473;42.734;24.258;2022-08-07T02:40:09;91776.34;;;21.37;62.44
20628;BME280;10473;42.734;24.258;2022-08-07T02:42:38;91762.63;;;21.44;62.07
20628;BME280;10473;42.734;24.258;2022-08-07T02:45:10;91762.00;;;21.40;62.02
20628;BME280;10473;42.734;24.258;2022-08-07T02:47:39;91771.38;;;21.35;62.30
20628;BME280;10473;42.734;24.258;2022-08-07T02:50:12;91777.28;;;21.43;62.16
20628;BME280;10473;42.734;24.258;2022-08-07T02:52:46;91770.41;;;21.42;61.88
20628;BME280;10473;42.734;24.258;2022-08-07T02:55:19;91767.28;;;21.43;61.66
20628;BME280;10473;42.734;24.258;2022-08-07T02:57:48;91773.09;;;21.42;61.06
20628;BME280;10473;42.734;24.258;2022-08-07T03:00:17;91774.84;;;21.36;61.36
20628;BME280;10473;42.734;24.258;2022-08-07T03:02:47;91781.63;;;21.28;61.77
20628;BME280;10473;42.734;24.258;2022-08-07T03:05:18;91785.94;;;20.88;62.16
20628;BME280;10473;42.734;24.258;2022-08-07T03:07:49;91777.00;;;20.78;62.46
20628;BME280;10473;42.734;24.258;2022-08-07T03:10:18;91776.69;;;20.89;61.98
20628;BME280;10473;42.734;24.258;2022-08-07T03:12:47;91786.41;;;20.99;61.74
20628;BME280;10473;42.734;24.258;2022-08-07T03:15:17;91781.66;;;21.03;61.56
20628;BME280;10473;42.734;24.258;2022-08-07T03:17:46;91784.78;;;21.01;61.91
20628;BME280;10473;42.734;24.258;2022-08-07T03:20:15;91786.63;;;20.92;62.22
20628;BME280;10473;42.734;24.258;2022-08-07T03:22:43;91784.13;;;20.97;61.82
20628;BME280;10473;42.734;24.258;2022-08-07T03:25:14;91778.13;;;21.06;61.73
20628;BME280;10473;42.734;24.258;2022-08-07T03:27:45;91789.31;;;20.92;62.24
20628;BME280;10473;42.734;24.258;2022-08-07T03:30:15;91781.94;;;20.80;62.88
20628;BME280;10473;42.734;24.258;2022-08-07T03:32:46;91782.84;;;20.89;62.70
20628;BME280;10473;42.734;24.258;2022-08-07T03:35:20;91775.84;;;20.92;62.16
20628;BME280;10473;42.734;24.258;2022-08-07T03:37:52;91772.72;;;20.93;62.01
20628;BME280;10473;42.734;24.258;2022-08-07T03:40:24;91772.81;;;20.90;62.66
20628;BME280;10473;42.734;24.258;2022-08-07T03:42:52;91770.03;;;20.93;62.03
20628;BME280;10473;42.734;24.258;2022-08-07T03:45:22;91765.72;;;20.96;62.02
20628;BME280;10473;42.734;24.258;2022-08-07T03:47:51;91779.06;;;20.87;63.08
20628;BME280;10473;42.734;24.258;2022-08-07T03:50:22;91793.38;;;20.71;63.52
20628;BME280;10473;42.734;24.258;2022-08-07T03:52:54;91781.53;;;20.69;63.21
20628;BME280;10473;42.734;24.258;2022-08-07T03:55:26;91782.94;;;20.86;63.20
20628;BME280;10473;42.734;24.258;2022-08-07T03:57:54;91791.34;;;20.88;63.55
20628;BME280;10473;42.734;24.258;2022-08-07T04:00:28;91792.66;;;20.96;63.51
20628;BME280;10473;42.734;24.258;2022-08-07T04:02:57;91795.53;;;20.64;64.52
20628;BME280;10473;42.734;24.258;2022-08-07T04:05:34;91785.72;;;20.70;64.36
20628;BME280;10473;42.734;24.258;2022-08-07T04:08:03;91797.56;;;20.85;64.45
20628;BME280;10473;42.734;24.258;2022-08-07T04:10:32;91801.97;;;20.54;65.51
20628;BME280;10473;42.734;24.258;2022-08-07T04:13:01;91811.47;;;20.58;65.55
20628;BME280;10473;42.734;24.258;2022-08-07T04:15:30;91793.78;;;20.70;65.41
20628;BME280;10473;42.734;24.258;2022-08-07T04:17:58;91796.84;;;20.84;64.60
20628;BME280;10473;42.734;24.258;2022-08-07T04:20:26;91789.97;;;20.96;63.98
20628;BME280;10473;42.734;24.258;2022-08-07T04:22:54;91795.88;;;21.16;63.95
20628;BME280;10473;42.734;24.258;2022-08-07T04:25:24;91798.69;;;21.25;63.93
20628;BME280;10473;42.734;24.258;2022-08-07T04:27:54;91808.19;;;21.17;64.18
20628;BME280;10473;42.734;24.258;2022-08-07T04:30:22;91801.97;;;21.41;63.92
20628;BME280;10473;42.734;24.258;2022-08-07T04:32:54;91812.31;;;21.55;63.01
20628;BME280;10473;42.734;24.258;2022-08-07T04:35:22;91811.97;;;21.66;62.39
20628;BME280;10473;42.734;24.258;2022-08-07T04:37:52;91799.03;;;21.73;62.63
20628;BME280;10473;42.734;24.258;2022-08-07T04:40:23;91800.88;;;21.76;62.27
20628;BME280;10473;42.734;24.258;2022-08-07T04:42:50;91809.53;;;21.46;64.16
20628;BME280;10473;42.734;24.258;2022-08-07T04:45:20;91815.38;;;21.45;64.87
20628;BME280;10473;42.734;24.258;2022-08-07T04:47:57;91809.28;;;21.66;64.00
20628;BME280;10473;42.734;24.258;2022-08-07T04:50:34;91807.00;;;21.77;63.63
20628;BME280;10473;42.734;24.258;2022-08-07T04:53:19;91797.94;;;21.83;63.58
20628;BME280;10473;42.734;24.258;2022-08-07T04:55:50;91805.03;;;21.90;63.39
20628;BME280;10473;42.734;24.258;2022-08-07T04:58:32;91804.78;;;21.97;64.15
20628;BME280;10473;42.734;24.258;2022-08-07T05:01:12;91809.56;;;22.14;63.37
20628;BME280;10473;42.734;24.258;2022-08-07T05:03:46;91813.09;;;22.02;63.53
20628;BME280;10473;42.734;24.258;2022-08-07T05:06:22;91811.28;;;21.28;65.65
20628;BME280;10473;42.734;24.258;2022-08-07T05:08:58;91819.38;;;21.15;65.89
20628;BME280;10473;42.734;24.258;2022-08-07T05:11:31;91811.19;;;21.06;66.96
20628;BME280;10473;42.734;24.258;2022-08-07T05:14:06;91819.59;;;21.21;67.10
20628;BME280;10473;42.734;24.258;2022-08-07T05:16:39;91823.91;;;21.31;67.29
20628;BME280;10473;42.734;24.258;2022-08-07T05:19:11;91825.63;;;21.50;66.21
20628;BME280;10473;42.734;24.258;2022-08-07T05:21:43;91816.59;;;21.65;65.37
20628;BME280;10473;42.734;24.258;2022-08-07T05:24:16;91813.34;;;21.83;64.41
20628;BME280;10473;42.734;24.258;2022-08-07T05:26:46;91818.84;;;21.92;63.98
20628;BME280;10473;42.734;24.258;2022-08-07T05:29:15;91816.84;;;22.05;63.28
20628;BME280;10473;42.734;24.258;2022-08-07T05:31:47;91818.00;;;22.16;62.79
20628;BME280;10473;42.734;24.258;2022-08-07T05:34:18;91819.09;;;22.28;62.94
20628;BME280;10473;42.734;24.258;2022-08-07T05:36:50;91823.25;;;22.20;62.85
20628;BME280;10473;42.734;24.258;2022-08-07T05:39:27;91821.56;;;22.13;64.43
20628;BME280;10473;42.734;24.258;2022-08-07T05:41:59;91838.09;;;22.37;64.28
20628;BME280;10473;42.734;24.258;2022-08-07T05:44:30;91821.09;;;22.49;63.54
20628;BME280;10473;42.734;24.258;2022-08-07T05:47:02;91835.34;;;22.71;62.99
20628;BME280;10473;42.734;24.258;2022-08-07T05:49:31;91830.38;;;23.00;63.24
20628;BME280;10473;42.734;24.258;2022-08-07T05:52:00;91830.88;;;23.07;60.26
20628;BME280;10473;42.734;24.258;2022-08-07T05:54:30;91851.09;;;23.64;59.35
20628;BME280;10473;42.734;24.258;2022-08-07T05:57:00;91847.41;;;23.97;60.44
20628;BME280;10473;42.734;24.258;2022-08-07T05:59:31;91849.41;;;24.15;57.57
20628;BME280;10473;42.734;24.258;2022-08-07T06:02:06;91847.31;;;24.55;56.11
20628;BME280;10473;42.734;24.258;2022-08-07T06:04:36;91856.50;;;24.75;54.87
20628;BME280;10473;42.734;24.258;2022-08-07T06:07:07;91860.84;;;24.82;53.67
20628;BME280;10473;42.734;24.258;2022-08-07T06:09:39;91848.75;;;25.01;53.77
20628;BME280;10473;42.734;24.258;2022-08-07T06:12:08;91862.13;;;25.23;53.34
20628;BME280;10473;42.734;24.258;2022-08-07T06:14:36;91863.94;;;25.17;53.35
20628;BME280;10473;42.734;24.258;2022-08-07T06:17:06;91856.69;;;25.23;56.80
20628;BME280;10473;42.734;24.258;2022-08-07T06:19:39;91864.19;;;25.78;55.00
20628;BME280;10473;42.734;24.258;2022-08-07T06:22:09;91861.31;;;25.82;52.60
20628;BME280;10473;42.734;24.258;2022-08-07T06:24:38;91855.69;;;25.85;51.64
20628;BME280;10473;42.734;24.258;2022-08-07T06:27:06;91850.41;;;25.91;51.05
20628;BME280;10473;42.734;24.258;2022-08-07T06:29:34;91840.44;;;26.58;54.25
20628;BME280;10473;42.734;24.258;2022-08-07T06:32:02;91859.03;;;26.13;51.00
20628;BME280;10473;42.734;24.258;2022-08-07T06:34:31;91855.63;;;26.27;51.32
20628;BME280;10473;42.734;24.258;2022-08-07T06:37:00;91866.41;;;26.59;51.07
20628;BME280;10473;42.734;24.258;2022-08-07T06:39:32;91866.47;;;27.17;52.32
20628;BME280;10473;42.734;24.258;2022-08-07T06:42:04;91866.31;;;27.35;51.01
20628;BME280;10473;42.734;24.258;2022-08-07T06:44:56;91869.19;;;27.75;49.27
20628;BME280;10473;42.734;24.258;2022-08-07T06:47:25;91859.28;;;27.92;48.66
20628;BME280;10473;42.734;24.258;2022-08-07T06:49:55;91857.06;;;27.76;47.67
20628;BME280;10473;42.734;24.258;2022-08-07T06:52:25;91867.66;;;27.74;47.47
20628;BME280;10473;42.734;24.258;2022-08-07T06:54:56;91866.69;;;27.28;49.68
20628;BME280;10473;42.734;24.258;2022-08-07T06:57:24;91855.81;;;27.28;49.06
20628;BME280;10473;42.734;24.258;2022-08-07T06:59:54;91854.28;;;27.42;49.59
20628;BME280;10473;42.734;24.258;2022-08-07T07:02:24;91864.06;;;27.48;49.07
20628;BME280;10473;42.734;24.258;2022-08-07T07:04:54;91863.75;;;27.61;49.36
20628;BME280;10473;42.734;24.258;2022-08-07T07:07:23;91863.69;;;27.26;49.39
20628;BME280;10473;42.734;24.258;2022-08-07T07:09:50;91867.22;;;27.03;49.99
20628;BME280;10473;42.734;24.258;2022-08-07T07:12:34;91866.03;;;26.66;50.10
20628;BME280;10473;42.734;24.258;2022-08-07T07:15:06;91871.09;;;26.12;50.67
20628;BME280;10473;42.734;24.258;2022-08-07T07:17:38;91875.84;;;26.02;51.33
20628;BME280;10473;42.734;24.258;2022-08-07T07:20:14;91871.94;;;26.03;51.25
20628;BME280;10473;42.734;24.258;2022-08-07T07:22:43;91863.38;;;25.96;51.75
20628;BME280;10473;42.734;24.258;2022-08-07T07:25:12;91867.28;;;25.95;52.22
20628;BME280;10473;42.734;24.258;2022-08-07T07:27:46;91877.81;;;25.69;52.21
20628;BME280;10473;42.734;24.258;2022-08-07T07:30:15;91871.03;;;25.97;52.46
20628;BME280;10473;42.734;24.258;2022-08-07T07:32:44;91880.06;;;26.03;51.18
20628;BME280;10473;42.734;24.258;2022-08-07T07:35:14;91871.84;;;25.47;52.12
20628;BME280;10473;42.734;24.258;2022-08-07T07:37:43;91876.44;;;25.65;51.90
20628;BME280;10473;42.734;24.258;2022-08-07T07:40:16;91872.19;;;25.73;51.61
20628;BME280;10473;42.734;24.258;2022-08-07T07:42:45;91880.97;;;25.68;51.86
20628;BME280;10473;42.734;24.258;2022-08-07T07:45:15;91881.34;;;25.93;52.30
20628;BME280;10473;42.734;24.258;2022-08-07T07:47:45;91888.25;;;25.94;50.68
20628;BME280;10473;42.734;24.258;2022-08-07T07:50:16;91895.19;;;25.95;51.07
20628;BME280;10473;42.734;24.258;2022-08-07T07:52:44;91874.50;;;26.21;51.30
20628;BME280;10473;42.734;24.258;2022-08-07T07:55:16;91890.22;;;26.17;50.51
20628;BME280;10473;42.734;24.258;2022-08-07T07:57:46;91888.84;;;26.45;51.92
20628;BME280;10473;42.734;24.258;2022-08-07T08:00:16;91899.09;;;26.03;50.15
20628;BME280;10473;42.734;24.258;2022-08-07T08:02:46;91885.16;;;26.10;50.47
20628;BME280;10473;42.734;24.258;2022-08-07T08:05:17;91878.00;;;25.57;50.55
20628;BME280;10473;42.734;24.258;2022-08-07T08:07:47;91872.78;;;25.44;50.59
20628;BME280;10473;42.734;24.258;2022-08-07T08:10:16;91878.97;;;25.77;50.68
20628;BME280;10473;42.734;24.258;2022-08-07T08:12:47;91881.34;;;25.93;50.23
20628;BME280;10473;42.734;24.258;2022-08-07T08:15:15;91888.31;;;26.09;51.10
20628;BME280;10473;42.734;24.258;2022-08-07T08:17:43;91893.25;;;26.19;51.21
20628;BME280;10473;42.734;24.258;2022-08-07T08:20:13;91894.97;;;26.08;49.96
20628;BME280;10473;42.734;24.258;2022-08-07T08:22:46;91878.50;;;26.35;50.31
20628;BME280;10473;42.734;24.258;2022-08-07T08:25:33;91887.06;;;26.42;50.03
20628;BME280;10473;42.734;24.258;2022-08-07T08:28:22;91880.41;;;26.43;50.37
20628;BME280;10473;42.734;24.258;2022-08-07T08:30:54;91878.22;;;26.56;49.37
20628;BME280;10473;42.734;24.258;2022-08-07T08:33:27;91889.38;;;26.11;49.35
20628;BME280;10473;42.734;24.258;2022-08-07T08:35:56;91884.41;;;26.33;50.23
20628;BME280;10473;42.734;24.258;2022-08-07T08:38:31;91876.28;;;26.71;49.64
20628;BME280;10473;42.734;24.258;2022-08-07T08:41:04;91877.38;;;27.17;50.42
20628;BME280;10473;42.734;24.258;2022-08-07T08:43:41;91882.19;;;27.51;49.56
20628;BME280;10473;42.734;24.258;2022-08-07T08:46:20;91866.13;;;27.39;48.04
20628;BME280;10473;42.734;24.258;2022-08-07T08:48:56;91868.56;;;27.22;48.03
20628;BME280;10473;42.734;24.258;2022-08-07T08:51:27;91849.75;;;26.95;48.42
20628;BME280;10473;42.734;24.258;2022-08-07T08:54:05;91864.09;;;26.67;48.61
20628;BME280;10473;42.734;24.258;2022-08-07T08:56:36;91872.03;;;26.56;47.73
20628;BME280;10473;42.734;24.258;2022-08-07T08:59:08;91864.69;;;26.47;48.44
20628;BME280;10473;42.734;24.258;2022-08-07T09:01:45;91874.59;;;26.50;48.25
20628;BME280;10473;42.734;24.258;2022-08-07T09:04:20;91870.13;;;26.47;48.27
20628;BME280;10473;42.734;24.258;2022-08-07T09:06:54;91890.97;;;26.41;49.24
20628;BME280;10473;42.734;24.258;2022-08-07T09:09:42;91883.31;;;26.40;48.55
20628;BME280;10473;42.734;24.258;2022-08-07T09:12:26;91876.78;;;26.23;48.90
20628;BME280;10473;42.734;24.258;2022-08-07T09:15:14;91900.94;;;25.88;49.94
20628;BME280;10473;42.734;24.258;2022-08-07T09:17:51;91884.56;;;26.06;49.18
20628;BME280;10473;42.734;24.258;2022-08-07T09:20:27;91854.25;;;25.75;48.49
20628;BME280;10473;42.734;24.258;2022-08-07T09:23:03;91875.72;;;25.64;48.94
20628;BME280;10473;42.734;24.258;2022-08-07T09:25:40;91875.53;;;25.68;50.88
20628;BME280;10473;42.734;24.258;2022-08-07T09:28:18;91873.63;;;25.59;51.55
20628;BME280;10473;42.734;24.258;2022-08-07T09:30:57;91875.28;;;25.57;51.88
20628;BME280;10473;42.734;24.258;2022-08-07T09:33:46;91867.25;;;25.62;51.70
20628;BME280;10473;42.734;24.258;2022-08-07T09:36:23;91874.81;;;25.58;51.17
20628;BME280;10473;42.734;24.258;2022-08-07T09:39:01;91895.41;;;25.41;51.35
20628;BME280;10473;42.734;24.258;2022-08-07T09:41:37;91885.75;;;25.40;51.27
20628;BME280;10473;42.734;24.258;2022-08-07T09:47:02;91894.31;;;25.48;51.04
20628;BME280;10473;42.734;24.258;2022-08-07T09:49:41;91900.41;;;25.34;50.79
20628;BME280;10473;42.734;24.258;2022-08-07T09:52:19;91884.53;;;25.41;50.94
20628;BME280;10473;42.734;24.258;2022-08-07T09:54:54;91889.56;;;25.66;50.89
20628;BME280;10473;42.734;24.258;2022-08-07T09:57:43;91877.38;;;25.62;49.01
20628;BME280;10473;42.734;24.258;2022-08-07T10:00:19;91904.72;;;25.49;49.80
20628;BME280;10473;42.734;24.258;2022-08-07T10:03:00;91888.84;;;25.06;51.62
20628;BME280;10473;42.734;24.258;2022-08-07T10:05:48;91890.81;;;24.88;50.98
20628;BME280;10473;42.734;24.258;2022-08-07T10:11:32;91884.06;;;24.65;52.47
20628;BME280;10473;42.734;24.258;2022-08-07T10:14:15;91890.09;;;24.60;51.89
20628;BME280;10473;42.734;24.258;2022-08-07T10:17:02;91901.06;;;24.65;51.82
20628;BME280;10473;42.734;24.258;2022-08-07T10:19:45;91903.44;;;24.99;52.42
20628;BME280;10473;42.734;24.258;2022-08-07T10:22:29;91912.63;;;25.20;52.99
20628;BME280;10473;42.734;24.258;2022-08-07T10:25:08;91921.94;;;25.37;53.27
20628;BME280;10473;42.734;24.258;2022-08-07T10:27:56;91897.50;;;25.46;57.23
20628;BME280;10473;42.734;24.258;2022-08-07T10:30:35;91899.59;;;25.42;57.17
20628;BME280;10473;42.734;24.258;2022-08-07T10:36:23;91903.78;;;24.92;59.50
20628;BME280;10473;42.734;24.258;2022-08-07T10:38:59;91911.44;;;23.82;63.36
20628;BME280;10473;42.734;24.258;2022-08-07T10:41:32;91904.13;;;23.22;66.38
20628;BME280;10473;42.734;24.258;2022-08-07T10:44:07;91903.38;;;23.00;65.44
20628;BME280;10473;42.734;24.258;2022-08-07T10:46:42;91920.59;;;23.15;64.46
20628;BME280;10473;42.734;24.258;2022-08-07T10:49:17;91915.41;;;23.60;64.90
20628;BME280;10473;42.734;24.258;2022-08-07T10:51:55;91903.31;;;23.82;67.31
20628;BME280;10473;42.734;24.258;2022-08-07T10:54:30;91914.50;;;24.02;65.92
20628;BME280;10473;42.734;24.258;2022-08-07T10:57:07;91904.50;;;24.21;63.61
20628;BME280;10473;42.734;24.258;2022-08-07T10:59:50;91908.28;;;24.32;61.76
20628;BME280;10473;42.734;24.258;2022-08-07T11:02:27;91913.78;;;24.02;59.07
20628;BME280;10473;42.734;24.258;2022-08-07T11:05:04;91925.88;;;24.37;61.26
20628;BME280;10473;42.734;24.258;2022-08-07T11:07:42;91921.66;;;24.54;60.20
20628;BME280;10473;42.734;24.258;2022-08-07T11:10:17;91918.38;;;24.77;58.34
20628;BME280;10473;42.734;24.258;2022-08-07T11:12:51;91903.59;;;24.42;60.41
20628;BME280;10473;42.734;24.258;2022-08-07T11:15:24;91902.44;;;24.70;60.23
20628;BME280;10473;42.734;24.258;2022-08-07T11:18:03;91907.38;;;24.98;60.22
20628;BME280;10473;42.734;24.258;2022-08-07T11:20:38;91918.34;;;25.31;61.53
20628;BME280;10473;42.734;24.258;2022-08-07T11:23:16;91913.75;;;25.55;61.68
20628;BME280;10473;42.734;24.258;2022-08-07T11:25:52;91917.75;;;25.69;57.70
20628;BME280;10473;42.734;24.258;2022-08-07T11:28:25;91899.53;;;25.69;54.97
20628;BME280;10473;42.734;24.258;2022-08-07T11:30:58;91906.28;;;25.32;56.84
20628;BME280;10473;42.734;24.258;2022-08-07T11:33:37;91897.84;;;25.12;57.14
20628;BME280;10473;42.734;24.258;2022-08-07T11:36:17;91896.91;;;25.33;56.17
20628;BME280;10473;42.734;24.258;2022-08-07T11:39:03;91903.25;;;25.39;54.98
20628;BME280;10473;42.734;24.258;2022-08-07T11:41:38;91912.81;;;25.58;55.39
20628;BME280;10473;42.734;24.258;2022-08-07T11:44:15;91902.91;;;25.46;55.68
20628;BME280;10473;42.734;24.258;2022-08-07T11:46:52;91906.00;;;25.30;54.01
20628;BME280;10473;42.734;24.258;2022-08-07T11:49:42;91899.97;;;25.08;53.42
20628;BME280;10473;42.734;24.258;2022-08-07T11:52:32;91907.50;;;25.13;54.17
20628;BME280;10473;42.734;24.258;2022-08-07T11:55:09;91898.16;;;25.14;54.24
20628;BME280;10473;42.734;24.258;2022-08-07T11:57:43;91896.03;;;25.27;54.74
20628;BME280;10473;42.734;24.258;2022-08-07T12:00:15;91893.81;;;25.58;56.50
20628;BME280;10473;42.734;24.258;2022-08-07T12:03:31;91894.34;;;25.80;54.53
20628;BME280;10473;42.734;24.258;2022-08-07T12:06:15;91890.94;;;26.03;53.54
20628;BME280;10473;42.734;24.258;2022-08-07T12:08:52;91888.16;;;26.12;53.29
20628;BME280;10473;42.734;24.258;2022-08-07T12:11:25;91892.31;;;26.22;54.62
20628;BME280;10473;42.734;24.258;2022-08-07T12:13:57;91886.53;;;26.29;53.40
20628;BME280;10473;42.734;24.258;2022-08-07T12:16:30;91899.53;;;26.02;50.61
20628;BME280;10473;42.734;24.258;2022-08-07T12:19:09;91902.53;;;26.04;54.17
20628;BME280;10473;42.734;24.258;2022-08-07T12:21:50;91892.00;;;25.64;53.52
20628;BME280;10473;42.734;24.258;2022-08-07T12:24:24;91882.97;;;25.58;51.13
20628;BME280;10473;42.734;24.258;2022-08-07T12:26:57;91898.97;;;25.56;52.46
20628;BME280;10473;42.734;24.258;2022-08-07T12:29:33;91895.31;;;25.27;53.40
20628;BME280;10473;42.734;24.258;2022-08-07T12:32:07;91884.88;;;25.34;53.71
20628;BME280;10473;42.734;24.258;2022-08-07T12:34:37;91891.03;;;25.35;54.85
20628;BME280;10473;42.734;24.258;2022-08-07T12:37:09;91880.63;;;25.42;53.04
20628;BME280;10473;42.734;24.258;2022-08-07T12:39:39;91856.25;;;25.24;53.12
20628;BME280;10473;42.734;24.258;2022-08-07T12:42:09;91859.84;;;25.39;53.40
20628;BME280;10473;42.734;24.258;2022-08-07T12:44:38;91877.38;;;25.62;52.30
20628;BME280;10473;42.734;24.258;2022-08-07T12:47:15;91871.53;;;25.87;51.69
20628;BME280;10473;42.734;24.258;2022-08-07T12:49:52;91878.97;;;25.77;51.32
20628;BME280;10473;42.734;24.258;2022-08-07T12:52:35;91859.00;;;25.89;51.89
20628;BME280;10473;42.734;24.258;2022-08-07T12:55:07;91871.72;;;25.83;51.14
20628;BME280;10473;42.734;24.258;2022-08-07T12:57:37;91873.03;;;25.55;50.29
20628;BME280;10473;42.734;24.258;2022-08-07T13:00:06;91874.47;;;25.74;49.99
20628;BME280;10473;42.734;24.258;2022-08-07T13:03:06;91852.44;;;25.72;50.25
20628;BME280;10473;42.734;24.258;2022-08-07T13:05:52;91879.25;;;25.79;49.68
20628;BME280;10473;42.734;24.258;2022-08-07T13:08:38;91882.38;;;25.96;49.84
20628;BME280;10473;42.734;24.258;2022-08-07T13:11:23;91883.06;;;26.05;50.22
20628;BME280;10473;42.734;24.258;2022-08-07T13:14:02;91880.94;;;25.44;50.81
20628;BME280;10473;42.734;24.258;2022-08-07T13:16:47;91878.16;;;25.53;51.75
20628;BME280;10473;42.734;24.258;2022-08-07T13:19:25;91890.22;;;25.52;52.97
20628;BME280;10473;42.734;24.258;2022-08-07T13:21:58;91876.69;;;25.43;53.04
20628;BME280;10473;42.734;24.258;2022-08-07T13:24:35;91859.88;;;25.21;53.13
20628;BME280;10473;42.734;24.258;2022-08-07T13:27:10;91860.78;;;25.27;52.46
20628;BME280;10473;42.734;24.258;2022-08-07T13:29:46;91867.06;;;25.33;53.22
20628;BME280;10473;42.734;24.258;2022-08-07T13:32:22;91858.31;;;25.38;51.85